createdAt,value
2022-11-28T00:01:05.249Z,16.83
2022-11-28T00:03:31.929Z,12.65
2022-11-28T00:06:07.318Z,14.38
2022-11-28T00:08:34.654Z,14.57
2022-11-28T00:13:36.236Z,18.35
2022-11-28T00:16:04.811Z,14.25
2022-11-28T00:18:32.153Z,17.20
2022-11-28T00:21:07.857Z,16.25
2022-11-28T00:23:35.049Z,17.00
2022-11-28T00:26:10.410Z,16.85
2022-11-28T00:28:37.564Z,15.80
2022-11-28T00:31:04.833Z,21.10
2022-11-28T00:33:32.982Z,22.63
2022-11-28T00:36:04.501Z,21.33
2022-11-28T00:38:32.110Z,23.67
2022-11-28T00:41:03.693Z,19.30
2022-11-28T00:43:30.285Z,20.85
2022-11-28T00:45:57.037Z,20.73
2022-11-28T00:48:24.732Z,19.33
2022-11-28T00:50:52.256Z,21.85
2022-11-28T00:53:19.075Z,18.08
2022-11-28T00:55:45.824Z,16.73
2022-11-28T00:58:12.372Z,16.30
2022-11-28T01:00:39.322Z,16.60
2022-11-28T01:03:05.996Z,17.15
2022-11-28T01:05:32.521Z,17.05
2022-11-28T01:07:59.139Z,16.07
2022-11-28T01:10:27.097Z,18.27
2022-11-28T01:12:53.851Z,19.35
2022-11-28T01:15:20.425Z,18.08
2022-11-28T01:17:46.928Z,18.80
2022-11-28T01:20:13.810Z,19.15
2022-11-28T01:22:40.362Z,20.38
2022-11-28T01:25:07.329Z,23.77
2022-11-28T01:27:34.036Z,19.35
2022-11-28T01:30:00.576Z,13.52
2022-11-28T01:32:27.326Z,19.90
2022-11-28T01:34:53.822Z,19.90
2022-11-28T01:37:20.388Z,18.20
2022-11-28T01:39:46.987Z,19.80
2022-11-28T01:42:20.438Z,20.70
2022-11-28T01:44:49.971Z,24.25
2022-11-28T01:47:21.798Z,22.80
2022-11-28T01:49:50.424Z,21.20
2022-11-28T01:52:19.682Z,19.45
2022-11-28T01:54:53.442Z,19.33
2022-11-28T01:57:24.005Z,19.95
2022-11-28T02:00:07.845Z,17.30
2022-11-28T02:02:41.622Z,19.73
2022-11-28T02:05:08.901Z,19.45
2022-11-28T02:07:37.208Z,19.67
2022-11-28T02:10:07.645Z,19.83
2022-11-28T02:12:43.473Z,19.80
2022-11-28T02:15:18.856Z,18.70
2022-11-28T02:17:52.318Z,16.77
2022-11-28T02:20:49.128Z,21.10
2022-11-28T02:25:58.811Z,19.73
2022-11-28T02:28:43.888Z,19.58
2022-11-28T02:31:25.588Z,18.73
2022-11-28T02:33:59.815Z,19.10
2022-11-28T02:36:26.314Z,20.25
2022-11-28T02:38:59.072Z,20.07
2022-11-28T02:41:31.757Z,17.13
2022-11-28T02:44:04.604Z,18.33
2022-11-28T02:46:56.485Z,17.67
2022-11-28T02:49:29.614Z,17.98
2022-11-28T02:52:00.737Z,19.88
2022-11-28T02:54:27.796Z,21.98
2022-11-28T02:56:55.317Z,21.83
2022-11-28T02:59:37.034Z,19.17
2022-11-28T03:02:12.461Z,18.17
2022-11-28T03:04:47.970Z,17.55
2022-11-28T03:07:17.229Z,16.77
2022-11-28T03:09:43.828Z,17.27
2022-11-28T03:12:24.947Z,19.40
2022-11-28T03:14:58.596Z,18.40
2022-11-28T03:17:31.070Z,18.20
2022-11-28T03:20:12.927Z,18.02
2022-11-28T03:23:01.791Z,17.33
2022-11-28T03:25:37.075Z,19.30
2022-11-28T03:28:15.464Z,18.08
2022-11-28T03:31:07.019Z,18.00
2022-11-28T03:33:38.047Z,20.50
2022-11-28T03:36:15.104Z,21.35
2022-11-28T03:38:48.965Z,19.02
2022-11-28T03:41:21.647Z,19.20
2022-11-28T03:43:54.102Z,23.40
2022-11-28T03:46:23.647Z,20.55
2022-11-28T03:48:55.471Z,19.80
2022-11-28T03:51:30.336Z,22.20
2022-11-28T03:54:20.054Z,21.02
2022-11-28T03:56:56.752Z,20.55
2022-11-28T03:59:33.487Z,18.52
2022-11-28T04:02:28.409Z,18.98
2022-11-28T04:05:13.313Z,19.08
2022-11-28T04:07:58.728Z,17.23
2022-11-28T04:10:36.359Z,14.57
2022-11-28T04:13:29.685Z,25.25
2022-11-28T04:16:03.146Z,19.08
2022-11-28T04:18:31.898Z,20.88
2022-11-28T04:21:11.944Z,21.30
2022-11-28T04:23:42.570Z,20.67
2022-11-28T04:26:17.826Z,20.63
2022-11-28T04:28:47.209Z,19.58
2022-11-28T04:31:17.958Z,20.75
2022-11-28T04:33:50.719Z,19.25
2022-11-28T04:36:20.462Z,22.48
2022-11-28T04:38:56.156Z,20.50
2022-11-28T04:41:33.511Z,27.13
2022-11-28T04:44:13.469Z,22.25
2022-11-28T04:46:44.559Z,23.48
2022-11-28T04:49:12.031Z,25.48
2022-11-28T04:52:13.169Z,22.00
2022-11-28T04:54:52.870Z,21.40
2022-11-28T04:57:26.559Z,18.77
2022-11-28T04:59:54.525Z,19.55
2022-11-28T05:02:22.597Z,18.58
2022-11-28T05:04:49.162Z,16.65
2022-11-28T05:07:15.683Z,19.42
2022-11-28T05:09:42.238Z,20.15
2022-11-28T05:12:08.802Z,16.25
2022-11-28T05:14:35.405Z,15.52
2022-11-28T05:17:01.913Z,14.20
2022-11-28T05:19:28.393Z,16.20
2022-11-28T05:21:54.897Z,12.10
2022-11-28T05:24:22.497Z,14.05
2022-11-28T05:26:49.385Z,13.45
2022-11-28T05:29:15.914Z,17.00
2022-11-28T05:31:42.558Z,12.02
2022-11-28T05:34:09.195Z,12.90
2022-11-28T05:36:35.729Z,13.70
2022-11-28T05:39:02.300Z,12.60
2022-11-28T05:41:31.393Z,14.23
2022-11-28T05:43:59.733Z,13.32
2022-11-28T05:46:27.525Z,11.60
2022-11-28T05:48:54.310Z,12.25
2022-11-28T05:51:20.929Z,13.55
2022-11-28T05:53:47.496Z,11.80
2022-11-28T05:56:17.830Z,12.02
2022-11-28T05:58:44.827Z,11.15
2022-11-28T06:01:26.082Z,14.68
2022-11-28T06:03:58.202Z,13.25
2022-11-28T06:06:26.136Z,13.45
2022-11-28T06:08:52.909Z,11.93
2022-11-28T06:11:21.109Z,13.77
2022-11-28T06:13:49.145Z,13.85
2022-11-28T06:16:21.591Z,13.63
2022-11-28T06:18:48.753Z,13.88
2022-11-28T06:21:16.172Z,13.63
2022-11-28T06:26:13.234Z,13.60
2022-11-28T06:28:40.757Z,13.63
2022-11-28T06:31:19.329Z,12.07
2022-11-28T06:33:46.113Z,12.30
2022-11-28T06:36:14.210Z,22.50
2022-11-28T06:38:40.929Z,11.65
2022-11-28T06:41:10.744Z,11.73
2022-11-28T06:43:37.996Z,12.63
2022-11-28T06:46:04.863Z,13.95
2022-11-28T06:48:32.280Z,10.75
2022-11-28T06:53:31.597Z,16.00
2022-11-28T06:55:58.650Z,12.23
2022-11-28T06:58:25.383Z,11.95
2022-11-28T07:00:51.999Z,13.82
2022-11-28T07:03:18.551Z,7.43
2022-11-28T07:05:45.103Z,10.97
2022-11-28T07:08:11.700Z,9.23
2022-11-28T07:10:38.545Z,9.65
2022-11-28T07:13:05.691Z,9.32
2022-11-28T07:17:58.886Z,9.55
2022-11-28T07:20:25.365Z,8.50
2022-11-28T07:22:51.900Z,7.53
2022-11-28T07:25:18.616Z,9.97
2022-11-28T07:27:45.233Z,9.07
2022-11-28T07:30:11.943Z,9.05
2022-11-28T07:32:41.524Z,7.32
2022-11-28T07:35:09.026Z,7.70
2022-11-28T07:37:36.239Z,6.68
2022-11-28T07:40:04.116Z,6.18
2022-11-28T07:42:30.711Z,6.60
2022-11-28T07:44:57.361Z,6.95
2022-11-28T07:47:23.952Z,11.45
2022-11-28T07:49:50.608Z,6.40
2022-11-28T07:52:17.162Z,6.70
2022-11-28T07:54:43.716Z,11.30
2022-11-28T07:57:13.012Z,7.33
2022-11-28T07:59:40.239Z,6.93
2022-11-28T08:02:07.521Z,8.93
2022-11-28T08:04:34.679Z,5.95
2022-11-28T08:07:01.303Z,5.93
2022-11-28T08:09:28.200Z,5.13
2022-11-28T08:11:54.750Z,5.70
2022-11-28T08:14:21.335Z,8.60
2022-11-28T08:16:49.496Z,6.00
2022-11-28T08:19:16.388Z,5.38
2022-11-28T08:21:43.299Z,7.00
2022-11-28T08:24:11.204Z,6.10
2022-11-28T08:26:38.186Z,5.75
2022-11-28T08:29:04.787Z,6.00
2022-11-28T08:31:34.983Z,4.57
2022-11-28T08:34:05.173Z,6.35
2022-11-28T08:36:32.455Z,6.50
2022-11-28T08:39:22.300Z,4.88
2022-11-28T08:41:49.888Z,4.68
2022-11-28T08:44:16.524Z,5.55
2022-11-28T08:46:43.096Z,5.20
2022-11-28T08:49:09.666Z,5.40
2022-11-28T08:51:37.072Z,4.65
2022-11-28T08:56:30.105Z,4.10
2022-11-28T08:58:56.636Z,5.53
2022-11-28T09:01:25.714Z,5.00
2022-11-28T09:03:54.087Z,5.03
2022-11-28T09:06:22.016Z,5.32
2022-11-28T09:08:49.806Z,5.45
2022-11-28T09:11:18.985Z,6.15
2022-11-28T09:13:46.004Z,5.40
2022-11-28T09:16:13.422Z,6.35
2022-11-28T09:21:09.495Z,7.82
2022-11-28T09:23:37.491Z,6.35
2022-11-28T09:26:33.474Z,6.50
2022-11-28T09:29:00.328Z,5.97
2022-11-28T09:31:27.196Z,5.93
2022-11-28T09:33:54.124Z,5.35
2022-11-28T09:36:23.295Z,5.32
2022-11-28T09:38:50.050Z,6.47
2022-11-28T09:41:28.460Z,6.07
2022-11-28T09:44:18.238Z,4.05
2022-11-28T09:46:47.633Z,6.43
2022-11-28T09:49:40.352Z,5.47
2022-11-28T09:52:26.807Z,6.45
2022-11-28T09:55:03.787Z,7.47
2022-11-28T09:57:45.448Z,5.82
2022-11-28T10:00:20.321Z,8.18
2022-11-28T10:03:19.183Z,5.80
2022-11-28T10:05:56.152Z,5.78
2022-11-28T10:08:28.454Z,5.35
2022-11-28T10:11:01.976Z,4.10
2022-11-28T10:14:07.711Z,3.72
2022-11-28T10:16:46.862Z,6.55
2022-11-28T10:19:38.617Z,4.15
2022-11-28T10:22:11.627Z,5.03
2022-11-28T10:24:43.689Z,4.05
2022-11-28T10:27:13.752Z,4.93
2022-11-28T10:30:08.616Z,3.95
2022-11-28T10:32:40.711Z,4.22
2022-11-28T10:35:28.110Z,4.20
2022-11-28T10:37:55.349Z,4.20
2022-11-28T10:40:36.352Z,5.22
2022-11-28T10:43:11.103Z,4.13
2022-11-28T10:46:03.789Z,5.68
2022-11-28T10:48:40.594Z,6.75
2022-11-28T10:53:59.262Z,4.07
2022-11-28T10:56:42.342Z,4.00
2022-11-28T10:59:17.781Z,6.80
2022-11-28T11:01:49.814Z,4.53
2022-11-28T11:04:22.670Z,4.80
2022-11-28T11:07:16.280Z,5.22
2022-11-28T11:09:46.211Z,4.95
2022-11-28T11:12:24.409Z,4.28
2022-11-28T11:14:50.912Z,5.07
2022-11-28T11:17:29.013Z,4.43
2022-11-28T11:20:00.136Z,5.03
2022-11-28T11:25:14.620Z,4.20
2022-11-28T11:27:50.766Z,3.80
2022-11-28T11:30:43.452Z,3.33
2022-11-28T11:33:17.080Z,3.42
2022-11-28T11:35:48.001Z,3.40
2022-11-28T11:38:20.544Z,3.90
2022-11-28T11:40:48.887Z,3.75
2022-11-28T11:43:33.170Z,3.58
2022-11-28T11:46:11.361Z,3.70
2022-11-28T11:48:42.132Z,4.45
2022-11-28T11:51:32.728Z,3.78
2022-11-28T11:54:16.658Z,4.20
2022-11-28T11:56:46.688Z,3.90
2022-11-28T11:59:33.920Z,4.38
2022-11-28T12:02:19.615Z,3.40
2022-11-28T12:04:55.150Z,3.88
2022-11-28T12:07:29.740Z,4.18
2022-11-28T12:10:00.590Z,4.78
2022-11-28T12:12:33.577Z,3.75
2022-11-28T12:15:00.144Z,4.22
2022-11-28T12:17:48.309Z,4.20
2022-11-28T12:20:37.367Z,4.28
2022-11-28T12:23:34.891Z,4.38
2022-11-28T12:26:19.433Z,6.97
2022-11-28T12:28:51.754Z,4.20
2022-11-28T12:31:36.221Z,5.60
2022-11-28T12:34:23.009Z,4.43
2022-11-28T12:37:41.960Z,13.80
2022-11-28T12:43:27.446Z,8.15
2022-11-28T12:46:23.179Z,9.75
2022-11-28T12:48:58.654Z,4.57
2022-11-28T12:51:37.058Z,6.05
2022-11-28T12:54:21.681Z,5.43
2022-11-28T12:57:03.451Z,5.45
2022-11-28T12:59:40.235Z,5.68
2022-11-28T13:02:44.037Z,5.65
2022-11-28T13:05:48.731Z,5.57
2022-11-28T13:08:36.818Z,5.40
2022-11-28T13:11:22.310Z,5.40
2022-11-28T13:13:52.721Z,5.15
2022-11-28T13:16:27.168Z,4.40
2022-11-28T13:19:11.639Z,5.10
2022-11-28T13:22:07.057Z,4.70
2022-11-28T13:24:51.818Z,5.13
2022-11-28T13:27:36.464Z,4.90
2022-11-28T13:30:14.841Z,4.90
2022-11-28T13:32:47.335Z,5.20
2022-11-28T13:35:16.523Z,5.75
2022-11-28T13:41:00.565Z,6.00
2022-11-28T13:43:57.983Z,13.02
2022-11-28T13:46:25.077Z,9.20
2022-11-28T13:49:13.892Z,7.00
2022-11-28T13:51:41.878Z,7.10
2022-11-28T13:54:18.029Z,6.18
2022-11-28T13:56:46.292Z,4.60
2022-11-28T13:59:21.530Z,6.10
2022-11-28T14:01:56.083Z,6.55
2022-11-28T14:04:23.089Z,6.07
2022-11-28T14:07:02.482Z,5.78
2022-11-28T14:09:57.985Z,5.10
2022-11-28T14:12:57.405Z,6.00
2022-11-28T14:15:44.880Z,5.35
2022-11-28T14:21:29.176Z,7.70
2022-11-28T14:24:27.669Z,8.68
2022-11-28T14:26:59.981Z,6.13
2022-11-28T14:29:48.602Z,6.22
2022-11-28T14:32:34.494Z,7.28
2022-11-28T14:35:02.062Z,5.45
2022-11-28T14:37:29.360Z,6.40
2022-11-28T14:42:58.134Z,14.93
2022-11-28T14:45:42.175Z,9.82
2022-11-28T14:48:15.019Z,9.32
2022-11-28T14:50:41.654Z,7.15
2022-11-28T14:53:30.009Z,5.57
2022-11-28T14:56:10.333Z,4.80
2022-11-28T14:58:37.625Z,6.20
2022-11-28T15:01:11.612Z,5.50
2022-11-28T15:03:47.594Z,8.30
2022-11-28T15:06:20.837Z,9.00
2022-11-28T15:08:53.162Z,5.15
2022-11-28T15:11:34.969Z,6.50
2022-11-28T15:14:10.560Z,8.70
2022-11-28T15:16:49.836Z,6.90
2022-11-28T15:19:19.913Z,7.05
2022-11-28T15:21:48.021Z,6.13
2022-11-28T15:24:32.985Z,6.75
2022-11-28T15:27:24.085Z,13.18
2022-11-28T15:30:01.497Z,10.23
2022-11-28T15:32:30.899Z,14.45
2022-11-28T15:35:07.762Z,9.07
2022-11-28T15:37:37.585Z,36.67
2022-11-28T15:40:06.138Z,22.83
2022-11-28T15:42:35.896Z,18.05
2022-11-28T15:45:18.527Z,16.48
2022-11-28T15:47:46.695Z,11.50
2022-11-28T15:50:13.220Z,7.72
2022-11-28T15:52:39.979Z,11.13
2022-11-28T15:55:16.859Z,13.32
2022-11-28T15:57:43.391Z,11.75
2022-11-28T16:00:14.872Z,7.75
2022-11-28T16:02:42.853Z,6.03
2022-11-28T16:05:21.300Z,8.88
2022-11-28T16:07:51.122Z,7.93
2022-11-28T16:10:27.867Z,7.43
2022-11-28T16:13:03.758Z,5.65
2022-11-28T16:15:31.576Z,6.47
2022-11-28T16:17:58.509Z,5.47
2022-11-28T16:20:28.435Z,7.80
2022-11-28T16:22:59.757Z,8.27
2022-11-28T16:25:27.283Z,7.15
2022-11-28T16:27:57.307Z,5.90
2022-11-28T16:30:29.942Z,6.15
2022-11-28T16:32:57.221Z,6.97
2022-11-28T16:35:38.910Z,10.55
2022-11-28T16:38:27.026Z,6.57
2022-11-28T16:41:01.148Z,8.55
2022-11-28T16:43:41.097Z,6.90
2022-11-28T16:46:18.320Z,6.03
2022-11-28T16:51:22.409Z,6.03
2022-11-28T16:53:50.297Z,6.88
2022-11-28T16:56:41.442Z,8.07
2022-11-28T16:59:07.928Z,7.97
2022-11-28T17:01:35.693Z,4.57
2022-11-28T17:04:02.745Z,7.57
2022-11-28T17:06:36.901Z,7.65
2022-11-28T17:09:09.003Z,9.30
2022-11-28T17:11:37.877Z,8.65
2022-11-28T17:14:10.173Z,8.55
2022-11-28T17:16:41.481Z,7.88
2022-11-28T17:19:08.326Z,8.73
2022-11-28T17:21:39.198Z,9.43
2022-11-28T17:24:11.939Z,10.73
2022-11-28T17:26:38.508Z,9.30
2022-11-28T17:29:05.071Z,8.88
2022-11-28T17:31:31.673Z,8.75
2022-11-28T17:33:58.211Z,10.48
2022-11-28T17:36:24.718Z,8.57
2022-11-28T17:38:51.399Z,8.20
2022-11-28T17:41:20.329Z,9.70
2022-11-28T17:43:46.877Z,8.77
2022-11-28T17:46:13.394Z,8.65
2022-11-28T17:48:39.965Z,9.23
2022-11-28T17:51:06.576Z,8.85
2022-11-28T17:53:33.175Z,12.30
2022-11-28T17:56:00.017Z,12.82
2022-11-28T17:58:27.038Z,7.45
2022-11-28T18:01:00.174Z,9.65
2022-11-28T18:03:28.058Z,9.27
2022-11-28T18:05:54.674Z,9.25
2022-11-28T18:08:22.251Z,10.32
2022-11-28T18:10:49.105Z,11.15
2022-11-28T18:13:17.418Z,11.40
2022-11-28T18:15:47.163Z,9.40
2022-11-28T18:18:13.926Z,10.18
2022-11-28T18:20:40.514Z,11.48
2022-11-28T18:23:07.101Z,11.63
2022-11-28T18:25:33.671Z,10.18
2022-11-28T18:28:00.245Z,10.15
2022-11-28T18:30:26.817Z,9.48
2022-11-28T18:32:53.388Z,10.90
2022-11-28T18:35:20.151Z,11.17
2022-11-28T18:37:46.744Z,10.05
2022-11-28T18:40:13.464Z,8.02
2022-11-28T18:42:40.197Z,9.63
2022-11-28T18:45:07.417Z,9.85
2022-11-28T18:47:35.881Z,12.23
2022-11-28T18:50:02.479Z,11.45
2022-11-28T18:52:29.018Z,15.43
2022-11-28T18:54:55.558Z,14.63
2022-11-28T18:57:22.077Z,14.20
2022-11-28T18:59:54.681Z,14.02
2022-11-28T19:02:22.028Z,15.82
2022-11-28T19:04:48.563Z,14.25
2022-11-28T19:07:15.123Z,14.97
2022-11-28T19:09:44.209Z,15.88
2022-11-28T19:12:11.567Z,13.35
2022-11-28T19:14:38.507Z,14.88
2022-11-28T19:17:05.187Z,12.27
2022-11-28T19:19:31.782Z,11.43
2022-11-28T19:21:58.266Z,16.40
2022-11-28T19:24:24.840Z,20.00
2022-11-28T19:26:51.402Z,13.57
2022-11-28T19:29:17.924Z,8.55
2022-11-28T19:31:45.044Z,13.13
2022-11-28T19:34:14.502Z,12.85
2022-11-28T19:36:43.498Z,12.07
2022-11-28T19:39:15.758Z,16.35
2022-11-28T19:41:42.638Z,16.02
2022-11-28T19:44:11.253Z,16.85
2022-11-28T19:46:38.115Z,19.50
2022-11-28T19:49:05.845Z,14.40
2022-11-28T19:51:32.515Z,14.52
2022-11-28T19:54:03.241Z,14.15
2022-11-28T19:56:31.416Z,12.40
2022-11-28T20:01:25.993Z,13.25
2022-11-28T20:03:53.250Z,13.75
2022-11-28T20:06:31.165Z,13.07
2022-11-28T20:09:10.314Z,13.43
2022-11-28T20:11:38.178Z,13.50
2022-11-28T20:14:07.731Z,15.75
2022-11-28T20:16:36.361Z,20.15
2022-11-28T20:19:03.521Z,22.15
2022-11-28T20:21:30.890Z,15.57
2022-11-28T20:26:27.117Z,13.30
2022-11-28T20:28:55.680Z,11.85
2022-11-28T20:31:25.035Z,11.93
2022-11-28T20:33:52.666Z,13.25
2022-11-28T20:36:21.866Z,11.80
2022-11-28T20:38:49.826Z,11.48
2022-11-28T20:41:18.396Z,11.40
2022-11-28T20:43:45.304Z,13.82
2022-11-28T20:46:16.103Z,13.63
2022-11-28T20:48:43.149Z,11.15
2022-11-28T20:51:15.246Z,13.50
2022-11-28T20:53:41.899Z,10.90
2022-11-28T20:56:17.418Z,11.50
2022-11-28T20:58:44.876Z,11.48
2022-11-28T21:01:23.027Z,10.65
2022-11-28T21:03:50.861Z,11.18
2022-11-28T21:06:17.556Z,12.77
2022-11-28T21:08:44.281Z,10.02
2022-11-28T21:11:30.531Z,12.38
2022-11-28T21:14:01.144Z,9.85
2022-11-28T21:18:56.336Z,11.18
2022-11-28T21:21:28.271Z,10.20
2022-11-28T21:24:09.593Z,12.32
2022-11-28T21:26:41.079Z,11.98
2022-11-28T21:29:11.958Z,12.02
2022-11-28T21:31:42.199Z,12.32
2022-11-28T21:34:14.171Z,14.93
2022-11-28T21:36:41.770Z,14.05
2022-11-28T21:41:38.342Z,25.73
2022-11-28T21:44:04.911Z,19.17
2022-11-28T21:46:31.424Z,18.75
2022-11-28T21:48:58.477Z,26.23
2022-11-28T21:51:26.066Z,18.80
2022-11-28T21:53:52.606Z,17.50
2022-11-28T21:56:20.367Z,18.60
2022-11-28T21:58:46.938Z,27.25
2022-11-28T22:01:14.161Z,30.27
2022-11-28T22:06:15.450Z,19.73
2022-11-28T22:08:42.344Z,22.30
2022-11-28T22:11:11.240Z,21.35
2022-11-28T22:13:38.562Z,25.00
2022-11-28T22:18:35.248Z,28.85
2022-11-28T22:21:06.512Z,30.45
2022-11-28T22:23:38.052Z,29.73
2022-11-28T22:26:06.493Z,24.33
2022-11-28T22:28:34.048Z,30.30
2022-11-28T22:31:16.595Z,51.72
2022-11-28T22:33:44.204Z,44.95
2022-11-28T22:36:14.113Z,26.30
2022-11-28T22:38:42.517Z,82.65
2022-11-28T22:41:16.765Z,70.03
2022-11-28T22:43:43.813Z,25.52
2022-11-28T22:46:10.997Z,40.28
2022-11-28T22:48:39.013Z,27.02
2022-11-28T22:51:14.429Z,26.92
2022-11-28T22:53:41.057Z,24.33
2022-11-28T22:56:09.774Z,27.02
2022-11-28T22:58:42.244Z,22.85
2022-11-28T23:01:11.494Z,38.08
2022-11-28T23:03:38.050Z,24.05
2022-11-28T23:06:10.473Z,56.13
2022-11-28T23:08:37.182Z,32.42
2022-11-28T23:11:09.208Z,23.38
2022-11-28T23:13:36.922Z,27.05
2022-11-28T23:16:15.579Z,25.80
2022-11-28T23:18:45.930Z,25.63
2022-11-28T23:21:13.290Z,22.95
2022-11-28T23:26:09.376Z,27.67
2022-11-28T23:28:36.834Z,24.15
2022-11-28T23:31:10.997Z,21.90
2022-11-28T23:33:38.267Z,22.77
2022-11-28T23:39:01.346Z,25.98
2022-11-28T23:41:29.742Z,23.15
2022-11-28T23:43:57.076Z,25.77
2022-11-28T23:48:51.700Z,24.17
2022-11-28T23:51:20.292Z,24.77
2022-11-28T23:53:47.340Z,26.85
2022-11-28T23:56:26.203Z,26.58
2022-11-28T23:58:55.945Z,25.63
